Time;durP1;ratioP1;P1;durP2;ratioP2;P2;SDS_P1;SDS_P2;PMS_P1;PMS_P2;Temp;Humidity;BMP_temperature;BMP_pressure;BME280_temperature;BME280_humidity;BME280_pressure;Samples;Min_cycle;Max_cycle;Signal;HPM_P1;HPM_P2
2024/03/31 00:01:49;;;;;;;25.17;15.80;;;21.50;58.60;;;;;;4917463;29;20459;-76
2024/03/31 00:04:16;;;;;;;27.43;16.87;;;21.50;58.70;;;;;;4901495;29;20469;-75
2024/03/31 00:06:46;;;;;;;23.83;15.30;;;21.50;58.60;;;;;;4921786;29;20477;-77
2024/03/31 00:09:12;;;;;;;25.13;15.20;;;21.50;58.70;;;;;;4921157;29;20461;-77
2024/03/31 00:11:40;;;;;;;25.80;16.33;;;21.40;58.60;;;;;;4899701;29;20462;-77
2024/03/31 00:14:06;;;;;;;22.43;15.13;;;21.40;58.60;;;;;;4902376;29;20457;-77
2024/03/31 00:16:34;;;;;;;23.87;16.00;;;21.40;58.60;;;;;;4899242;29;20481;-76
2024/03/31 00:19:00;;;;;;;29.33;16.33;;;21.40;58.60;;;;;;4902729;29;20461;-77
2024/03/31 00:21:29;;;;;;;24.80;15.63;;;21.40;58.60;;;;;;4907169;29;20446;-76
2024/03/31 00:23:55;;;;;;;28.83;17.77;;;21.40;58.50;;;;;;4898899;29;20491;-77
2024/03/31 00:26:27;;;;;;;24.57;16.47;;;21.30;58.60;;;;;;4897021;29;20473;-76
2024/03/31 00:28:53;;;;;;;29.07;17.97;;;21.30;58.50;;;;;;4903976;29;20458;-76
2024/03/31 00:31:20;;;;;;;25.40;17.37;;;21.30;58.50;;;;;;4902238;29;20450;-77
2024/03/31 00:33:47;;;;;;;28.20;17.47;;;21.30;58.50;;;;;;4906063;29;20445;-77
2024/03/31 00:36:15;;;;;;;34.23;18.43;;;21.20;58.40;;;;;;4917080;29;20482;-78
2024/03/31 00:38:42;;;;;;;31.57;18.73;;;21.20;58.50;;;;;;4900215;29;20466;-76
2024/03/31 00:41:09;;;;;;;27.83;17.87;;;21.20;58.50;;;;;;4897393;29;20894;-77
2024/03/31 00:43:35;;;;;;;27.87;16.93;;;21.20;58.60;;;;;;4902134;29;20461;-76
2024/03/31 00:46:12;;;;;;;27.53;18.17;;;21.20;58.70;;;;;;4908138;29;20453;-77
2024/03/31 00:48:43;;;;;;;29.27;18.03;;;21.20;58.70;;;;;;4892269;29;20970;-78
2024/03/31 00:51:45;;;;;;;33.73;17.50;;;21.20;58.70;;;;;;4909195;29;21067;-78
2024/03/31 00:54:16;;;;;;;28.00;18.60;;;21.20;58.70;;;;;;4927400;29;20438;-77
2024/03/31 00:57:02;;;;;;;31.00;19.50;;;21.10;58.70;;;;;;4920483;29;20490;-77
2024/03/31 00:59:40;;;;;;;28.80;18.20;;;21.10;58.60;;;;;;4899055;29;20467;-77
2024/03/31 01:02:08;;;;;;;31.67;19.63;;;21.10;58.70;;;;;;4911410;29;20459;-77
2024/03/31 01:04:34;;;;;;;29.10;19.60;;;21.10;58.60;;;;;;4917992;29;20462;-77
2024/03/31 01:07:17;;;;;;;28.60;19.80;;;21.10;58.70;;;;;;4899142;29;20458;-77
2024/03/31 01:09:45;;;;;;;29.50;19.33;;;21.00;58.60;;;;;;4903308;29;20464;-78
2024/03/31 01:12:12;;;;;;;31.67;18.87;;;21.00;58.70;;;;;;4910673;29;20522;-78
2024/03/31 01:14:38;;;;;;;27.73;18.93;;;21.00;58.80;;;;;;4904261;29;20449;-78
2024/03/31 01:17:06;;;;;;;31.07;19.07;;;21.00;58.60;;;;;;4895942;29;20458;-77
2024/03/31 01:19:32;;;;;;;34.63;20.57;;;21.00;58.60;;;;;;4906959;29;20448;-78
2024/03/31 01:21:59;;;;;;;31.67;19.97;;;21.00;58.60;;;;;;4891646;29;20451;-77
2024/03/31 01:24:27;;;;;;;34.97;20.60;;;21.00;58.60;;;;;;4902728;29;20461;-77
2024/03/31 01:26:54;;;;;;;29.87;19.73;;;20.90;58.60;;;;;;4921964;29;20453;-79
2024/03/31 01:29:20;;;;;;;34.20;20.37;;;20.90;58.60;;;;;;4919370;29;20451;-77
2024/03/31 01:31:48;;;;;;;30.20;20.33;;;20.90;58.70;;;;;;4913107;29;20462;-76
2024/03/31 01:34:14;;;;;;;27.93;18.90;;;20.80;58.50;;;;;;4905441;29;20446;-77
2024/03/31 01:36:41;;;;;;;37.40;20.63;;;20.80;58.70;;;;;;4893759;29;20486;-77
2024/03/31 01:39:07;;;;;;;29.27;19.43;;;20.80;58.80;;;;;;4914315;29;20450;-77
2024/03/31 01:41:36;;;;;;;28.00;19.20;;;20.80;58.60;;;;;;4908112;29;20594;-77
2024/03/31 01:44:02;;;;;;;29.70;19.60;;;20.80;58.80;;;;;;4898338;29;20461;-78
2024/03/31 01:46:29;;;;;;;29.97;19.80;;;20.70;58.70;;;;;;4907098;29;20469;-77
2024/03/31 01:48:56;;;;;;;31.10;19.60;;;20.70;58.60;;;;;;4902935;29;20450;-78
2024/03/31 01:51:23;;;;;;;32.20;20.57;;;20.70;58.70;;;;;;4906277;29;20461;-79
2024/03/31 01:53:49;;;;;;;31.70;20.27;;;20.70;58.70;;;;;;4901627;29;20462;-78
2024/03/31 01:56:17;;;;;;;31.67;20.93;;;20.70;58.60;;;;;;4907599;29;20478;-77
2024/03/31 01:58:45;;;;;;;32.13;20.50;;;20.70;58.70;;;;;;4904328;29;20945;-78
2024/03/31 02:01:13;;;;;;;31.90;20.50;;;20.60;58.70;;;;;;4901898;29;20458;-78
2024/03/31 02:03:40;;;;;;;36.20;21.13;;;20.60;58.70;;;;;;4901744;29;20465;-77
2024/03/31 02:06:11;;;;;;;32.50;21.00;;;20.60;58.80;;;;;;4922353;29;20479;-79
2024/03/31 02:08:37;;;;;;;30.63;20.37;;;20.60;58.80;;;;;;4909217;29;20437;-78
2024/03/31 02:11:05;;;;;;;30.77;20.83;;;20.60;58.80;;;;;;4903737;29;20461;-79
2024/03/31 02:13:31;;;;;;;32.27;20.93;;;20.50;58.60;;;;;;4906095;29;20437;-78
2024/03/31 02:16:01;;;;;;;32.37;20.60;;;20.50;58.60;;;;;;4901275;29;20529;-76
2024/03/31 02:18:27;;;;;;;29.07;19.50;;;20.50;58.90;;;;;;4914468;29;20440;-78
2024/03/31 02:20:54;;;;;;;34.73;21.90;;;20.50;59.80;;;;;;4906819;29;20456;-77
2024/03/31 02:23:20;;;;;;;30.90;20.70;;;20.60;60.60;;;;;;4897000;29;20828;-78
2024/03/31 02:25:47;;;;;;;32.30;21.10;;;20.70;60.90;;;;;;4918998;29;20465;-76
2024/03/31 02:28:13;;;;;;;30.43;20.47;;;20.60;60.90;;;;;;4904387;29;20950;-76
2024/03/31 02:30:42;;;;;;;31.40;21.33;;;20.60;60.90;;;;;;4919471;29;20505;-77
2024/03/31 02:33:09;;;;;;;32.80;21.57;;;20.60;60.70;;;;;;4907857;29;20450;-77
2024/03/31 02:35:38;;;;;;;31.03;21.03;;;20.60;60.60;;;;;;4896020;29;20485;-77
2024/03/31 02:38:04;;;;;;;32.83;20.30;;;20.50;60.70;;;;;;4913711;29;20439;-76
2024/03/31 02:40:31;;;;;;;35.90;22.77;;;20.50;60.40;;;;;;4910125;29;20462;-77
2024/03/31 02:42:57;;;;;;;31.47;20.87;;;20.50;60.60;;;;;;4897483;29;20442;-76
2024/03/31 02:45:24;;;;;;;31.90;21.90;;;20.50;60.40;;;;;;4906286;29;20548;-75
2024/03/31 02:47:50;;;;;;;30.13;20.93;;;20.50;60.50;;;;;;4917560;29;20445;-77
2024/03/31 02:50:19;;;;;;;39.23;21.97;;;20.40;60.30;;;;;;4896688;29;20540;-77
2024/03/31 02:52:45;;;;;;;35.30;21.77;;;20.40;60.40;;;;;;4901081;29;20449;-78
2024/03/31 02:55:12;;;;;;;31.27;21.47;;;20.40;60.40;;;;;;4906613;29;20473;-78
2024/03/31 02:57:38;;;;;;;32.97;21.60;;;20.40;60.40;;;;;;4907664;29;20452;-78
2024/03/31 03:00:06;;;;;;;32.87;21.90;;;20.30;60.00;;;;;;4924894;29;20453;-77
2024/03/31 03:02:32;;;;;;;33.40;22.13;;;20.30;60.30;;;;;;4896020;29;20445;-76
2024/03/31 03:04:59;;;;;;;31.60;21.33;;;20.30;60.30;;;;;;4896064;29;20478;-78
2024/03/31 03:07:27;;;;;;;32.50;21.60;;;20.30;60.20;;;;;;4896194;29;20449;-78
2024/03/31 03:09:54;;;;;;;32.10;21.57;;;20.30;60.20;;;;;;4896251;29;20458;-76
2024/03/31 03:12:20;;;;;;;35.53;21.93;;;20.30;60.20;;;;;;4896788;29;20417;-77
2024/03/31 03:14:48;;;;;;;33.27;22.83;;;20.20;59.90;;;;;;4896603;29;20485;-78
2024/03/31 03:17:14;;;;;;;31.40;21.80;;;20.20;60.20;;;;;;4894847;29;20488;-78
2024/03/31 03:19:42;;;;;;;33.90;22.90;;;20.20;60.00;;;;;;4898328;29;20442;-77
2024/03/31 03:22:09;;;;;;;33.47;21.47;;;20.20;59.90;;;;;;4907646;29;20458;-74
2024/03/31 03:24:37;;;;;;;35.37;21.80;;;20.20;60.10;;;;;;4914951;29;20505;-76
2024/03/31 03:27:04;;;;;;;34.43;22.80;;;20.10;59.70;;;;;;4915624;29;20449;-77
2024/03/31 03:29:31;;;;;;;35.87;23.77;;;20.10;59.90;;;;;;4897511;29;20454;-77
2024/03/31 03:31:57;;;;;;;34.27;22.90;;;20.10;59.90;;;;;;4902087;29;20449;-77
2024/03/31 03:34:24;;;;;;;34.67;23.07;;;20.10;59.90;;;;;;4896177;29;20509;-77
2024/03/31 03:36:50;;;;;;;32.50;22.17;;;20.10;60.00;;;;;;4910321;29;20478;-76
2024/03/31 03:39:17;;;;;;;32.53;22.80;;;20.10;60.10;;;;;;4897755;29;20504;-76
2024/03/31 03:41:46;;;;;;;33.23;22.97;;;20.10;59.90;;;;;;4896302;29;20458;-79
2024/03/31 03:44:14;;;;;;;35.33;22.40;;;20.10;60.00;;;;;;4904152;29;20869;-79
2024/03/31 03:46:40;;;;;;;35.70;23.53;;;20.10;60.00;;;;;;4910153;29;20466;-79
2024/03/31 03:49:08;;;;;;;35.73;22.93;;;20.10;60.10;;;;;;4908612;29;20441;-79
2024/03/31 03:51:36;;;;;;;35.30;23.30;;;20.10;60.00;;;;;;4902864;29;20450;-78
2024/03/31 03:54:04;;;;;;;36.17;22.27;;;20.10;60.00;;;;;;4905619;29;20461;-79
2024/03/31 03:56:30;;;;;;;33.30;22.47;;;20.10;60.00;;;;;;4906032;29;20482;-78
2024/03/31 03:58:59;;;;;;;34.57;23.40;;;20.00;60.10;;;;;;4906882;29;20438;-78
2024/03/31 04:01:25;;;;;;;34.40;22.57;;;20.10;60.00;;;;;;4906529;29;20493;-79
2024/03/31 04:03:52;;;;;;;35.27;23.20;;;20.00;60.00;;;;;;4921439;29;20450;-79
2024/03/31 04:06:18;;;;;;;33.20;22.47;;;20.00;60.20;;;;;;4912185;29;20469;-78
2024/03/31 04:08:45;;;;;;;38.83;23.33;;;20.00;60.10;;;;;;4938544;29;20446;-81
2024/03/31 04:11:12;;;;;;;35.80;23.07;;;20.00;60.10;;;;;;4930286;29;20465;-82
2024/03/31 04:13:39;;;;;;;34.40;22.37;;;20.00;60.10;;;;;;4943519;28;20450;-78
2024/03/31 04:16:06;;;;;;;35.60;22.73;;;20.00;60.10;;;;;;4917359;29;20474;-77
2024/03/31 04:18:33;;;;;;;32.93;22.17;;;20.00;60.10;;;;;;4918752;29;20442;-77
2024/03/31 04:20:59;;;;;;;34.53;23.40;;;20.00;60.00;;;;;;4911345;29;20461;-79
2024/03/31 04:23:26;;;;;;;31.23;21.60;;;20.00;60.00;;;;;;4911532;29;20457;-79
2024/03/31 04:25:52;;;;;;;34.23;23.00;;;20.00;60.10;;;;;;4933451;29;20457;-79
2024/03/31 04:28:20;;;;;;;37.60;22.60;;;20.00;60.10;;;;;;4910303;29;20450;-83
2024/03/31 04:30:46;;;;;;;35.53;23.03;;;20.00;60.20;;;;;;4915625;29;20450;-77
2024/03/31 04:33:14;;;;;;;35.00;23.00;;;20.00;60.10;;;;;;4908632;29;20525;-78
2024/03/31 04:35:40;;;;;;;32.30;22.60;;;20.00;60.10;;;;;;4916607;29;20485;-78
2024/03/31 04:38:08;;;;;;;33.50;22.93;;;20.00;60.20;;;;;;4913672;29;20536;-78
2024/03/31 04:40:34;;;;;;;40.20;23.70;;;19.90;60.20;;;;;;4927938;29;20460;-78
2024/03/31 04:43:01;;;;;;;31.93;22.20;;;20.00;60.00;;;;;;4913299;29;20450;-76
2024/03/31 04:45:28;;;;;;;33.40;22.20;;;19.90;60.20;;;;;;4898174;29;20470;-77
2024/03/31 04:47:55;;;;;;;33.20;22.90;;;19.90;60.00;;;;;;4914686;29;20450;-76
2024/03/31 04:50:22;;;;;;;36.47;22.77;;;19.90;59.90;;;;;;4893222;29;20455;-77
2024/03/31 04:52:50;;;;;;;36.90;23.40;;;19.90;60.10;;;;;;4913916;29;20446;-78
2024/03/31 04:55:16;;;;;;;35.43;23.60;;;19.90;60.20;;;;;;4900400;29;20466;-76
2024/03/31 04:57:43;;;;;;;34.43;23.20;;;19.90;60.20;;;;;;4910752;29;20469;-77
2024/03/31 05:00:10;;;;;;;34.87;22.97;;;19.90;60.30;;;;;;4898466;29;20450;-77
2024/03/31 05:02:37;;;;;;;32.77;22.83;;;19.90;60.10;;;;;;4907250;29;20454;-79
2024/03/31 05:05:03;;;;;;;32.83;22.17;;;19.90;60.30;;;;;;4924837;29;20532;-77
2024/03/31 05:07:31;;;;;;;33.27;21.90;;;19.90;60.30;;;;;;4913993;29;20448;-77
2024/03/31 05:09:57;;;;;;;39.40;21.43;;;19.90;60.00;;;;;;4921470;29;20455;-76
2024/03/31 05:12:25;;;;;;;34.30;23.00;;;19.80;60.40;;;;;;4910687;29;20460;-77
2024/03/31 05:14:51;;;;;;;35.10;22.77;;;19.80;60.40;;;;;;4913897;29;20462;-77
2024/03/31 05:17:19;;;;;;;33.43;22.03;;;19.90;60.20;;;;;;4913303;29;20480;-76
2024/03/31 05:19:44;;;;;;;32.60;21.60;;;19.80;60.20;;;;;;4902128;29;20449;-76
2024/03/31 05:22:12;;;;;;;35.70;22.70;;;19.90;60.40;;;;;;4921897;29;20465;-77
2024/03/31 05:24:40;;;;;;;35.40;23.03;;;19.90;60.30;;;;;;4905787;29;20438;-77
2024/03/31 05:27:07;;;;;;;37.07;22.70;;;19.90;60.20;;;;;;4897331;29;20458;-77
2024/03/31 05:29:33;;;;;;;31.83;21.87;;;19.90;60.20;;;;;;4897684;29;20450;-74
2024/03/31 05:32:00;;;;;;;31.63;22.57;;;19.80;60.10;;;;;;4897702;29;20525;-77
2024/03/31 05:34:26;;;;;;;36.90;23.27;;;19.80;59.90;;;;;;4907927;29;20449;-76
2024/03/31 05:36:53;;;;;;;34.50;22.90;;;19.80;60.20;;;;;;4916787;29;20504;-77
2024/03/31 05:39:19;;;;;;;37.53;23.03;;;19.80;60.20;;;;;;4908903;29;20445;-77
2024/03/31 05:41:48;;;;;;;31.83;21.10;;;19.80;59.90;;;;;;4914291;29;20449;-77
2024/03/31 05:44:14;;;;;;;32.13;22.03;;;19.80;60.00;;;;;;4897295;29;20449;-75
2024/03/31 05:46:41;;;;;;;34.27;22.73;;;19.80;60.00;;;;;;4897205;29;20478;-78
2024/03/31 05:49:08;;;;;;;36.30;22.97;;;19.80;60.30;;;;;;4912769;29;20450;-77
2024/03/31 05:51:35;;;;;;;32.30;22.43;;;19.80;60.30;;;;;;4914902;29;20461;-77
2024/03/31 05:54:01;;;;;;;29.80;21.17;;;19.90;60.50;;;;;;4909188;29;20456;-77
2024/03/31 05:56:28;;;;;;;30.70;21.70;;;19.90;60.30;;;;;;4924903;29;20484;-77
2024/03/31 05:58:56;;;;;;;32.10;20.87;;;19.90;60.20;;;;;;4906085;29;20457;-77
2024/03/31 06:01:23;;;;;;;34.00;20.53;;;19.90;60.20;;;;;;4904928;29;20449;-77
2024/03/31 06:03:49;;;;;;;31.40;21.20;;;19.90;60.50;;;;;;4905922;29;20453;-78
2024/03/31 06:06:16;;;;;;;30.63;21.10;;;19.90;60.20;;;;;;4904793;29;20462;-77
2024/03/31 06:08:42;;;;;;;33.13;21.00;;;19.90;60.00;;;;;;4907069;29;20926;-78
2024/03/31 06:11:09;;;;;;;34.70;21.77;;;19.90;60.20;;;;;;4923837;29;20521;-76
2024/03/31 06:13:35;;;;;;;29.63;20.87;;;19.90;60.40;;;;;;4896785;29;20950;-77
2024/03/31 06:16:04;;;;;;;30.73;20.87;;;19.90;60.10;;;;;;4916713;29;20481;-77
2024/03/31 06:18:30;;;;;;;30.97;20.40;;;19.90;60.30;;;;;;4915187;29;20437;-78
2024/03/31 06:20:57;;;;;;;26.80;19.03;;;20.00;60.20;;;;;;4912868;29;20446;-78
2024/03/31 06:23:24;;;;;;;29.10;20.33;;;19.90;60.20;;;;;;4912586;29;20485;-76
2024/03/31 06:25:56;;;;;;;27.77;19.57;;;20.00;60.20;;;;;;4896821;29;20473;-77
2024/03/31 06:28:23;;;;;;;30.33;21.00;;;20.00;60.20;;;;;;4912546;29;20442;-78
2024/03/31 06:30:50;;;;;;;33.33;21.57;;;20.00;59.90;;;;;;4895709;29;20452;-78
2024/03/31 06:33:17;;;;;;;31.07;20.50;;;19.90;60.20;;;;;;4900783;29;20449;-76
2024/03/31 06:35:45;;;;;;;28.53;19.47;;;20.00;60.40;;;;;;4899844;29;20474;-77
2024/03/31 06:38:11;;;;;;;31.27;21.00;;;19.90;60.40;;;;;;4910268;29;20483;-78
2024/03/31 06:40:38;;;;;;;27.50;19.50;;;20.00;60.50;;;;;;4919503;29;20445;-79
2024/03/31 06:43:04;;;;;;;30.80;20.23;;;20.00;60.10;;;;;;4896938;29;20458;-77
2024/03/31 06:45:32;;;;;;;27.60;19.70;;;20.00;60.10;;;;;;4897828;29;20524;-77
2024/03/31 06:47:58;;;;;;;31.30;20.37;;;20.00;60.00;;;;;;4928842;29;20415;-76
2024/03/31 06:50:27;;;;;;;29.17;18.80;;;20.00;60.40;;;;;;4911722;29;20534;-75
2024/03/31 06:52:53;;;;;;;29.57;20.00;;;20.00;60.30;;;;;;4929744;29;20460;-77
2024/03/31 06:55:20;;;;;;;30.33;20.37;;;19.90;60.30;;;;;;4910695;29;20466;-76
2024/03/31 06:57:46;;;;;;;30.30;20.03;;;20.00;60.20;;;;;;4929399;29;20473;-77
2024/03/31 07:00:14;;;;;;;25.60;18.47;;;20.00;60.10;;;;;;4902264;29;20449;-79
2024/03/31 07:02:40;;;;;;;28.50;18.90;;;20.00;60.20;;;;;;4921541;29;20943;-77
2024/03/31 07:05:07;;;;;;;28.63;19.80;;;20.00;60.00;;;;;;4908483;29;20493;-78
2024/03/31 07:07:35;;;;;;;26.47;19.77;;;20.00;60.10;;;;;;4894323;29;20450;-77
2024/03/31 07:10:02;;;;;;;30.83;20.27;;;20.00;60.30;;;;;;4896784;29;20433;-77
2024/03/31 07:12:28;;;;;;;32.20;18.80;;;20.00;60.20;;;;;;4907857;29;20456;-77
2024/03/31 07:14:55;;;;;;;25.80;18.40;;;20.00;60.10;;;;;;4904965;29;20469;-78
2024/03/31 07:17:21;;;;;;;27.53;18.93;;;20.00;60.10;;;;;;4896475;29;20477;-77
2024/03/31 07:19:48;;;;;;;28.13;18.13;;;20.00;60.30;;;;;;4913445;29;20453;-76
2024/03/31 07:22:14;;;;;;;30.27;19.70;;;20.00;60.00;;;;;;4899737;29;20457;-75
2024/03/31 07:24:43;;;;;;;27.60;18.80;;;20.00;60.20;;;;;;4919013;29;20449;-75
2024/03/31 07:27:09;;;;;;;28.40;19.00;;;20.00;60.10;;;;;;4907546;29;20434;-75
2024/03/31 07:29:36;;;;;;;25.07;18.30;;;20.00;59.90;;;;;;4940676;29;20442;-77
2024/03/31 07:32:02;;;;;;;25.17;18.03;;;20.00;60.10;;;;;;4919442;29;20449;-77
2024/03/31 07:34:30;;;;;;;26.30;18.47;;;20.10;60.00;;;;;;4917575;29;20445;-75
2024/03/31 07:36:56;;;;;;;26.13;18.10;;;20.10;60.10;;;;;;4905392;29;20473;-76
2024/03/31 07:39:23;;;;;;;26.47;18.13;;;20.10;60.10;;;;;;4928481;29;20453;-77
2024/03/31 07:41:50;;;;;;;26.67;17.43;;;20.10;60.10;;;;;;4920279;29;20453;-76
2024/03/31 07:44:17;;;;;;;25.80;18.30;;;20.10;60.00;;;;;;4902499;29;20457;-77
2024/03/31 07:46:43;;;;;;;24.40;17.47;;;20.00;59.80;;;;;;4903102;29;20571;-77
2024/03/31 07:49:10;;;;;;;27.33;18.30;;;20.10;59.90;;;;;;4922891;29;20448;-77
2024/03/31 07:51:36;;;;;;;25.70;18.10;;;20.10;60.00;;;;;;4906468;29;20442;-78
2024/03/31 07:54:04;;;;;;;25.93;18.10;;;20.00;59.80;;;;;;4924133;29;20458;-77
2024/03/31 07:56:30;;;;;;;24.87;17.33;;;20.00;59.90;;;;;;4897119;29;20489;-77
2024/03/31 07:58:59;;;;;;;24.57;17.00;;;20.00;59.90;;;;;;4909318;29;20445;-77
2024/03/31 08:01:25;;;;;;;22.10;16.37;;;20.10;60.00;;;;;;4931579;29;20445;-76
2024/03/31 08:03:52;;;;;;;25.00;17.27;;;20.10;59.80;;;;;;4929106;29;20870;-77
2024/03/31 08:06:19;;;;;;;25.80;16.83;;;20.10;59.80;;;;;;4935466;29;20998;-76
2024/03/31 08:08:46;;;;;;;26.30;17.00;;;20.10;59.80;;;;;;4911371;29;20454;-76
2024/03/31 08:11:12;;;;;;;22.93;16.50;;;20.10;59.80;;;;;;4921557;29;20268;-76
2024/03/31 08:13:39;;;;;;;21.30;16.40;;;20.00;59.80;;;;;;4909927;29;20441;-77
2024/03/31 08:16:07;;;;;;;22.07;16.80;;;20.10;59.90;;;;;;4925979;29;20986;-77
2024/03/31 08:18:35;;;;;;;25.17;17.83;;;20.00;59.80;;;;;;4909089;29;20496;-77
2024/03/31 08:21:01;;;;;;;24.03;16.30;;;20.10;59.90;;;;;;4931741;29;20445;-76
2024/03/31 08:23:29;;;;;;;25.03;17.00;;;20.00;59.90;;;;;;4924461;29;20957;-76
2024/03/31 08:25:56;;;;;;;24.27;17.20;;;20.10;59.90;;;;;;4916217;29;20473;-77
2024/03/31 08:28:24;;;;;;;22.63;16.67;;;20.10;59.80;;;;;;4907941;29;20446;-75
2024/03/31 08:30:50;;;;;;;23.30;16.33;;;20.00;59.80;;;;;;4896930;29;20439;-78
2024/03/31 08:33:18;;;;;;;24.00;16.03;;;20.10;59.80;;;;;;4899807;29;20517;-78
2024/03/31 08:35:50;;;;;;;24.27;16.60;;;20.10;59.70;;;;;;4907456;29;20465;-78
2024/03/31 08:38:17;;;;;;;24.03;15.53;;;20.20;59.80;;;;;;4926481;29;20493;-78
2024/03/31 08:40:43;;;;;;;21.33;15.30;;;20.10;59.70;;;;;;4901793;29;20446;-78
2024/03/31 08:43:10;;;;;;;22.33;15.53;;;20.10;59.40;;;;;;4926565;29;20823;-77
2024/03/31 08:45:36;;;;;;;21.40;15.77;;;20.10;59.70;;;;;;4909594;29;20473;-77
2024/03/31 08:48:04;;;;;;;20.33;14.80;;;20.10;59.60;;;;;;4908316;29;20468;-78
2024/03/31 08:50:31;;;;;;;22.33;16.03;;;20.20;59.70;;;;;;4900320;29;20446;-75
2024/03/31 08:52:59;;;;;;;22.17;15.60;;;20.20;59.50;;;;;;4924549;29;20516;-77
2024/03/31 08:55:25;;;;;;;19.50;14.93;;;20.20;59.60;;;;;;4911664;29;20997;-77
2024/03/31 08:57:52;;;;;;;21.53;15.87;;;20.20;59.70;;;;;;4916073;29;20473;-78
2024/03/31 09:00:18;;;;;;;18.13;14.73;;;20.20;59.60;;;;;;4898354;29;20445;-76
2024/03/31 09:02:46;;;;;;;22.77;15.80;;;20.20;59.50;;;;;;4908189;29;20466;-78
2024/03/31 09:05:12;;;;;;;20.53;14.67;;;20.20;59.40;;;;;;4907756;29;20473;-78
2024/03/31 09:07:42;;;;;;;24.70;15.80;;;20.30;59.50;;;;;;4898843;29;20457;-77
2024/03/31 09:10:09;;;;;;;20.90;15.20;;;20.30;59.40;;;;;;4925645;29;20448;-76
2024/03/31 09:12:36;;;;;;;20.63;14.73;;;20.30;59.60;;;;;;4911191;29;20457;-77
2024/03/31 09:15:02;;;;;;;19.90;14.37;;;20.40;59.40;;;;;;4907452;29;20530;-77
2024/03/31 09:17:33;;;;;;;19.17;14.10;;;20.40;59.30;;;;;;4900273;29;20978;-78
2024/03/31 09:20:01;;;;;;;19.53;14.53;;;20.40;59.20;;;;;;4899321;29;20438;-78
2024/03/31 09:22:28;;;;;;;18.90;14.60;;;20.50;59.20;;;;;;4899559;29;20454;-78
2024/03/31 09:25:47;;;;;;;17.60;13.60;;;20.50;59.20;;;;;;4921352;29;20476;-78
2024/03/31 09:28:16;;;;;;;19.50;14.03;;;20.60;59.10;;;;;;4891737;29;20962;-78
2024/03/31 09:30:44;;;;;;;18.07;13.63;;;20.70;59.20;;;;;;4915371;29;20460;-78
2024/03/31 09:33:14;;;;;;;18.47;13.60;;;20.70;59.00;;;;;;4900105;29;20450;-77
2024/03/31 09:35:45;;;;;;;17.37;13.53;;;20.80;58.90;;;;;;4902992;29;20476;-78
2024/03/31 09:38:13;;;;;;;19.83;14.27;;;20.80;58.80;;;;;;4919732;29;20485;-78
2024/03/31 09:40:41;;;;;;;18.87;13.37;;;20.90;58.70;;;;;;4906239;29;20437;-77
2024/03/31 09:43:08;;;;;;;16.30;12.53;;;21.00;58.70;;;;;;4908410;29;20447;-79
2024/03/31 09:45:38;;;;;;;17.30;12.50;;;21.00;58.50;;;;;;4899495;29;20465;-78
2024/03/31 09:48:09;;;;;;;16.00;13.20;;;21.10;58.50;;;;;;4914270;29;20451;-78
2024/03/31 09:50:39;;;;;;;16.57;13.47;;;21.10;58.50;;;;;;4898240;29;20455;-78
2024/03/31 09:53:09;;;;;;;16.70;13.40;;;21.10;58.30;;;;;;4904862;29;20826;-79
2024/03/31 09:59:58;;;;;;;16.20;12.50;;;21.10;58.30;;;;;;4856893;29;20443;-80
2024/03/31 10:41:45;;;;;;;14.80;11.43;;;21.70;58.60;;;;;;3009803;23;20906;-82
2024/03/31 10:44:16;;;;;;;16.10;12.30;;;21.80;57.90;;;;;;4919299;29;20457;-80
2024/03/31 10:46:43;;;;;;;12.47;11.03;;;21.90;57.70;;;;;;4918021;29;20474;-82
2024/03/31 10:49:13;;;;;;;12.23;10.93;;;22.10;58.10;;;;;;4904512;29;20433;-83
2024/03/31 10:51:40;;;;;;;15.27;11.50;;;22.20;57.70;;;;;;4899619;29;20443;-78
2024/03/31 10:54:27;;;;;;;14.50;10.93;;;22.40;57.50;;;;;;4905181;29;20453;-79
2024/03/31 11:00:54;;;;;;;12.10;10.60;;;22.60;57.20;;;;;;4845768;29;20451;-77
2024/03/31 11:03:25;;;;;;;12.30;10.60;;;22.90;57.30;;;;;;4850224;29;20455;-74
2024/03/31 11:05:52;;;;;;;12.90;10.50;;;23.10;57.10;;;;;;4886656;29;20474;-80
2024/03/31 11:08:18;;;;;;;19.80;10.80;;;23.30;57.10;;;;;;4892018;29;20446;-79
2024/03/31 11:10:46;;;;;;;12.10;10.30;;;23.70;57.10;;;;;;4898824;29;20458;-77
2024/03/31 11:13:12;;;;;;;12.37;10.20;;;23.90;56.30;;;;;;4881668;29;20450;-77
2024/03/31 11:15:40;;;;;;;11.70;10.30;;;24.00;56.00;;;;;;4882032;29;20444;-77
2024/03/31 11:18:07;;;;;;;10.60;9.13;;;24.00;56.50;;;;;;4881752;29;20475;-77
2024/03/31 11:20:42;;;;;;;12.87;10.20;;;24.10;56.60;;;;;;4881117;29;20417;-75
2024/03/31 11:23:12;;;;;;;11.83;10.23;;;24.40;56.40;;;;;;4881600;29;20449;-77
2024/03/31 11:25:40;;;;;;;10.40;9.30;;;24.70;56.10;;;;;;4880017;29;20429;-77
2024/03/31 11:28:07;;;;;;;10.30;9.23;;;25.10;55.90;;;;;;4898399;29;20422;-78
2024/03/31 11:30:34;;;;;;;11.20;9.10;;;25.50;55.30;;;;;;4884266;29;20418;-80
2024/03/31 11:33:01;;;;;;;13.10;10.13;;;25.60;54.70;;;;;;4884013;29;20457;-78
2024/03/31 11:35:29;;;;;;;11.40;9.67;;;25.70;54.30;;;;;;4884541;29;20489;-78
2024/03/31 11:38:10;;;;;;;9.90;8.90;;;25.60;54.30;;;;;;4883451;29;20466;-77
2024/03/31 11:40:37;;;;;;;10.37;8.87;;;25.40;54.50;;;;;;4879233;29;20409;-76
2024/03/31 11:43:03;;;;;;;9.90;8.93;;;25.50;55.30;;;;;;4896867;29;20429;-78
2024/03/31 11:45:33;;;;;;;9.83;8.83;;;26.00;55.00;;;;;;4883499;29;20444;-79
2024/03/31 11:48:00;;;;;;;8.77;7.87;;;26.30;54.50;;;;;;4893856;29;20453;-78
2024/03/31 11:50:28;;;;;;;10.97;7.80;;;27.00;53.70;;;;;;4883305;29;20443;-79
2024/03/31 11:52:55;;;;;;;10.80;7.10;;;27.50;53.40;;;;;;4897609;29;20447;-80
2024/03/31 11:55:22;;;;;;;8.10;6.57;;;28.40;53.40;;;;;;4881681;29;20458;-79
2024/03/31 11:57:48;;;;;;;8.10;6.37;;;29.20;50.50;;;;;;4881713;29;20466;-80
2024/03/31 12:00:15;;;;;;;7.20;6.47;;;30.00;49.70;;;;;;4882143;29;20458;-80
2024/03/31 12:02:41;;;;;;;6.97;5.30;;;31.30;49.60;;;;;;4882350;29;20454;-79
2024/03/31 12:05:17;;;;;;;8.00;5.50;;;32.30;45.00;;;;;;4882186;29;20549;-83
2024/03/31 12:07:45;;;;;;;11.90;8.40;;;33.10;45.10;;;;;;4900574;29;20211;-81
2024/03/31 12:10:12;;;;;;;12.93;9.00;;;34.00;41.60;;;;;;4884498;29;20447;-81
2024/03/31 12:12:38;;;;;;;9.13;8.37;;;35.00;37.60;;;;;;4884577;29;20443;-82
2024/03/31 12:15:05;;;;;;;9.53;8.50;;;35.60;36.50;;;;;;4884494;29;20467;-83
2024/03/31 12:17:31;;;;;;;8.90;8.00;;;36.40;35.40;;;;;;4890382;29;20508;-81
2024/03/31 12:19:58;;;;;;;9.03;8.23;;;36.80;34.00;;;;;;4887327;29;20938;-81
2024/03/31 12:22:24;;;;;;;8.00;7.40;;;37.10;32.30;;;;;;4885477;29;20208;-80
2024/03/31 12:24:53;;;;;;;8.57;7.87;;;37.40;32.10;;;;;;4884564;29;20466;-82
2024/03/31 12:27:19;;;;;;;8.50;7.80;;;37.70;30.80;;;;;;4885524;29;20446;-81
2024/03/31 12:29:47;;;;;;;8.63;7.90;;;37.60;30.50;;;;;;4884278;29;20471;-80
2024/03/31 12:32:13;;;;;;;8.90;8.10;;;38.00;30.20;;;;;;4883238;29;20450;-79
2024/03/31 12:34:41;;;;;;;7.83;7.07;;;38.30;29.70;;;;;;4884462;29;20449;-80
2024/03/31 12:37:07;;;;;;;20.77;7.00;;;38.60;29.50;;;;;;4876737;29;20453;-79
2024/03/31 12:39:34;;;;;;;6.93;6.23;;;38.60;29.20;;;;;;4897611;29;20454;-82
2024/03/31 12:42:03;;;;;;;9.03;5.20;;;38.30;29.90;;;;;;4905952;29;20513;-82
2024/03/31 12:44:31;;;;;;;5.63;5.13;;;38.50;29.80;;;;;;4896339;29;20450;-81
2024/03/31 12:47:00;;;;;;;9.73;4.80;;;38.60;29.60;;;;;;4895198;29;20473;-84
2024/03/31 12:50:26;;;;;;;7.07;4.27;;;38.20;29.90;;;;;;4887374;29;20447;-83
2024/03/31 12:52:52;;;;;;;4.70;4.20;;;37.90;30.50;;;;;;4878358;29;20442;-83
2024/03/31 12:55:20;;;;;;;4.47;4.13;;;38.20;30.50;;;;;;4884287;29;20461;-80
2024/03/31 12:57:47;;;;;;;4.37;3.97;;;38.20;30.30;;;;;;4883320;29;20475;-83
2024/03/31 13:00:15;;;;;;;6.30;4.50;;;38.10;30.80;;;;;;4884927;29;20443;-82
2024/03/31 13:02:41;;;;;;;4.77;4.20;;;38.10;30.90;;;;;;4887190;29;20450;-82
2024/03/31 13:05:08;;;;;;;4.30;3.90;;;37.80;31.40;;;;;;4893432;29;20466;-82
2024/03/31 13:07:36;;;;;;;4.07;3.77;;;37.40;31.50;;;;;;4887066;29;20443;-83
2024/03/31 13:10:03;;;;;;;4.40;4.10;;;36.70;32.00;;;;;;4889122;29;20474;-83
2024/03/31 13:12:30;;;;;;;4.40;4.10;;;35.70;33.40;;;;;;4885620;29;20446;-83
2024/03/31 13:14:59;;;;;;;6.20;4.83;;;34.70;34.70;;;;;;4886704;29;20473;-83
2024/03/31 13:17:25;;;;;;;5.40;4.93;;;34.00;36.30;;;;;;4884282;29;20470;-83
2024/03/31 13:19:52;;;;;;;5.30;4.80;;;33.60;37.40;;;;;;4899573;29;20445;-84
2024/03/31 13:22:18;;;;;;;5.30;4.90;;;33.30;37.70;;;;;;4889761;29;20454;-83